Time;durP1;ratioP1;P1;durP2;ratioP2;P2;SDS_P1;SDS_P2;PMS_P1;PMS_P2;Temp;Humidity;BMP_temperature;BMP_pressure;BME280_temperature;BME280_humidity;BME280_pressure;Samples;Min_cycle;Max_cycle;Signal;HPM_P1;HPM_P2
2022/01/26 00:05:44;;;;;;;52.38;18.02;;;3.20;99.90;;;;;;5026699;28;20052;-81
2022/01/26 00:06:44;;;;;;;42.10;15.73;;;3.20;99.90;;;;;;5030964;28;20037;-84
2022/01/26 00:09:11;;;;;;;44.60;15.38;;;3.20;99.90;;;;;;5033414;28;20485;-84
2022/01/26 00:11:39;;;;;;;50.80;15.98;;;3.20;99.90;;;;;;5033424;28;20041;-80
2022/01/26 00:14:12;;;;;;;40.35;14.18;;;3.20;99.90;;;;;;5007660;28;20041;-83
2022/01/26 00:16:43;;;;;;;45.63;15.60;;;3.20;99.90;;;;;;5032918;28;20095;-83
2022/01/26 00:19:18;;;;;;;52.97;19.20;;;3.20;99.90;;;;;;5033825;28;20069;-83
2022/01/26 00:21:49;;;;;;;;;;;3.20;99.90;;;;;;5033727;28;20049;-85
2022/01/26 00:29:38;;;;;;;46.10;16.13;;;3.50;99.90;;;;;;5025674;28;20061;-83
2022/01/26 00:40:52;;;;;;;50.13;16.10;;;3.20;99.90;;;;;;5032513;28;20049;-83
2022/01/26 00:43:23;;;;;;;52.80;19.08;;;3.10;99.90;;;;;;5030896;28;20444;-83
2022/01/26 00:45:55;;;;;;;55.45;17.35;;;3.20;99.90;;;;;;5026748;28;20042;-83
2022/01/26 00:48:21;;;;;;;59.50;18.23;;;3.90;99.90;;;;;;5031085;28;20041;-84
2022/01/26 00:50:51;;;;;;;59.95;19.67;;;3.20;99.90;;;;;;5032787;28;20104;-84
2022/01/26 00:53:23;;;;;;;60.03;18.15;;;3.20;99.90;;;;;;5032448;28;20060;-82
2022/01/26 00:55:49;;;;;;;50.38;17.42;;;2.40;99.90;;;;;;5011793;28;20045;-84
2022/01/26 00:58:15;;;;;;;45.30;15.98;;;3.60;99.90;;;;;;5032198;28;20041;-85
2022/01/26 01:00:41;;;;;;;43.15;14.38;;;3.10;99.90;;;;;;5032737;28;20405;-82
2022/01/26 01:03:07;;;;;;;54.50;17.73;;;3.10;99.90;;;;;;5032236;28;20056;-83
2022/01/26 01:05:42;;;;;;;43.42;15.25;;;3.10;99.90;;;;;;5031958;28;20038;-84
2022/01/26 01:08:13;;;;;;;61.90;19.83;;;3.10;99.90;;;;;;5031501;28;20042;-83
2022/01/26 01:10:40;;;;;;;56.25;20.60;;;3.20;99.90;;;;;;5031797;28;20054;-83
2022/01/26 01:13:13;;;;;;;57.13;19.67;;;3.10;99.90;;;;;;5032520;28;20417;-85
2022/01/26 01:15:39;;;;;;;58.70;19.05;;;3.10;99.90;;;;;;5031912;28;20094;-84
2022/01/26 01:18:15;;;;;;;52.80;18.30;;;3.30;99.90;;;;;;5014142;28;20124;-84
2022/01/26 01:23:47;;;;;;;49.20;17.17;;;3.10;99.90;;;;;;5032225;28;20406;-84
2022/01/26 01:31:57;;;;;;;60.05;20.40;;;3.00;99.90;;;;;;4958053;28;20101;-84
2022/01/26 01:34:29;;;;;;;54.40;18.70;;;3.10;99.90;;;;;;4936751;29;20130;-83
2022/01/26 01:37:01;;;;;;;63.10;18.40;;;3.10;99.90;;;;;;4936917;28;20061;-83
2022/01/26 01:39:29;;;;;;;67.20;19.88;;;3.10;99.90;;;;;;4956609;28;20547;-80
2022/01/26 01:41:55;;;;;;;56.55;19.75;;;3.50;99.90;;;;;;4952955;28;20566;-84
2022/01/26 01:44:21;;;;;;;55.47;17.73;;;3.10;99.90;;;;;;4952273;28;20061;-85
2022/01/26 01:46:47;;;;;;;54.80;18.00;;;3.10;99.90;;;;;;4952366;28;20042;-84
2022/01/26 01:49:14;;;;;;;60.38;19.15;;;3.10;99.90;;;;;;4944683;28;20055;-86
2022/01/26 01:51:45;;;;;;;53.70;19.23;;;3.80;99.90;;;;;;4953066;28;20078;-85
2022/01/26 01:54:16;;;;;;;53.97;16.45;;;3.50;99.90;;;;;;4953370;28;20039;-84
2022/01/26 01:56:43;;;;;;;55.72;17.27;;;3.20;99.90;;;;;;4964190;28;20055;-82
2022/01/26 01:59:10;;;;;;;49.83;16.20;;;3.90;99.90;;;;;;4951595;28;20047;-84
2022/01/26 02:01:36;;;;;;;56.97;18.52;;;3.00;99.90;;;;;;4941447;28;20507;-86
2022/01/26 02:04:02;;;;;;;55.13;17.10;;;3.10;99.90;;;;;;5031045;28;20050;-86
2022/01/26 02:06:27;;;;;;;53.60;17.05;;;3.50;99.90;;;;;;5031680;28;20029;-81
2022/01/26 02:08:53;;;;;;;49.80;16.05;;;3.10;99.90;;;;;;5031579;28;20052;-84
2022/01/26 02:11:18;;;;;;;57.60;18.48;;;3.00;99.90;;;;;;5030419;28;20128;-84
2022/01/26 03:02:33;;;;;;;64.80;20.08;;;3.00;99.90;;;;;;4861293;29;20057;-81
2022/01/26 03:04:47;;;;;;;63.83;21.48;;;3.00;99.90;;;;;;4911002;29;20096;-82
2022/01/26 03:10:17;;;;;;;58.10;19.73;;;2.90;99.90;;;;;;4940748;29;20103;-80
2022/01/26 03:12:48;;;;;;;59.70;20.17;;;2.90;99.90;;;;;;4944693;29;20043;-85
2022/01/26 03:15:21;;;;;;;50.85;18.33;;;3.00;99.90;;;;;;4934059;29;20057;-84
2022/01/26 03:20:14;;;;;;;56.63;18.02;;;2.90;99.90;;;;;;4946345;29;20555;-84
2022/01/26 03:35:45;;;;;;;48.47;17.98;;;3.00;99.90;;;;;;5030240;28;20448;-86
2022/01/26 03:38:22;;;;;;;50.88;17.92;;;2.90;99.90;;;;;;5009539;28;20045;-85
2022/01/26 03:40:57;;;;;;;51.40;17.20;;;3.60;99.90;;;;;;5034032;28;20053;-85
2022/01/26 03:43:23;;;;;;;59.25;19.35;;;3.00;99.90;;;;;;5034204;28;20049;-85
2022/01/26 03:45:48;;;;;;;54.45;19.80;;;3.00;99.90;;;;;;5033878;28;20044;-82
2022/01/26 03:48:14;;;;;;;51.10;16.98;;;3.00;99.90;;;;;;5026320;28;20397;-84
2022/01/26 03:50:40;;;;;;;55.13;18.00;;;3.00;99.90;;;;;;5033805;28;20045;-84
2022/01/26 03:53:05;;;;;;;57.75;18.20;;;3.00;99.90;;;;;;5033963;28;20433;-83
2022/01/26 03:55:31;;;;;;;65.28;21.98;;;3.00;99.90;;;;;;5033896;28;20111;-84
2022/01/26 03:57:57;;;;;;;58.28;19.13;;;3.00;99.90;;;;;;5033477;28;20050;-85
2022/01/26 04:00:22;;;;;;;53.70;17.85;;;3.00;99.90;;;;;;5033700;28;20049;-85
2022/01/26 04:02:48;;;;;;;66.53;21.92;;;3.50;99.90;;;;;;5016501;28;20053;-83
2022/01/26 04:05:14;;;;;;;54.88;19.38;;;3.00;99.90;;;;;;5033227;28;20045;-85
2022/01/26 04:07:42;;;;;;;61.65;18.95;;;3.00;99.90;;;;;;5016616;28;20049;-84
2022/01/26 04:10:20;;;;;;;52.85;18.38;;;3.00;99.90;;;;;;5033219;28;20116;-85
2022/01/26 04:12:45;;;;;;;54.17;18.58;;;3.00;99.90;;;;;;5033672;28;20037;-84
2022/01/26 04:15:22;;;;;;;62.55;19.13;;;3.80;99.90;;;;;;5033298;28;20561;-84
2022/01/26 04:17:48;;;;;;;53.15;17.58;;;3.00;99.90;;;;;;5033508;28;20077;-86
2022/01/26 04:20:14;;;;;;;49.63;17.20;;;3.00;99.90;;;;;;5015122;28;20573;-85
2022/01/26 04:22:51;;;;;;;59.15;18.60;;;3.20;99.90;;;;;;5033013;28;20128;-86
2022/01/26 04:25:21;;;;;;;43.25;15.93;;;3.00;99.90;;;;;;5032987;28;20453;-86
2022/01/26 04:27:50;;;;;;;58.58;18.55;;;3.00;99.90;;;;;;5033481;28;20041;-84
2022/01/26 04:30:15;;;;;;;50.83;16.30;;;3.50;99.90;;;;;;5032446;28;20053;-86
2022/01/26 04:32:41;;;;;;;49.08;18.17;;;3.00;99.90;;;;;;5033199;28;20048;-85
2022/01/26 04:35:09;;;;;;;53.47;19.35;;;3.00;99.90;;;;;;5032955;28;20494;-84
2022/01/26 04:40:13;;;;;;;55.58;18.40;;;3.60;99.90;;;;;;5032807;28;20042;-83
2022/01/26 04:42:51;;;;;;;52.00;17.00;;;3.00;99.90;;;;;;5015903;28;20045;-85
2022/01/26 04:45:17;;;;;;;51.20;17.02;;;3.00;99.90;;;;;;5032440;28;20457;-85
2022/01/26 04:47:43;;;;;;;50.53;18.55;;;2.90;99.90;;;;;;5032566;28;20394;-85
2022/01/26 04:50:10;;;;;;;51.45;18.02;;;2.90;99.90;;;;;;5032744;28;20096;-85
2022/01/26 04:52:37;;;;;;;48.78;17.17;;;3.50;99.90;;;;;;5032850;28;20029;-84
2022/01/26 04:55:03;;;;;;;51.58;18.83;;;2.90;99.90;;;;;;5015486;28;20042;-84
2022/01/26 04:57:29;;;;;;;54.03;17.27;;;3.00;99.90;;;;;;5032683;28;20046;-86
2022/01/26 04:59:54;;;;;;;45.58;16.55;;;3.30;99.90;;;;;;5032869;28;20098;-85
2022/01/26 05:02:20;;;;;;;53.92;17.65;;;2.90;99.90;;;;;;5028258;28;20143;-85
2022/01/26 05:04:46;;;;;;;40.38;14.95;;;2.90;99.90;;;;;;5032578;28;20490;-85
2022/01/26 05:07:11;;;;;;;41.88;14.75;;;2.90;99.90;;;;;;5032327;28;20041;-84
2022/01/26 05:09:37;;;;;;;51.38;16.98;;;2.90;99.90;;;;;;5031754;28;20061;-83
2022/01/26 05:12:03;;;;;;;67.38;20.05;;;2.80;99.90;;;;;;5032548;28;20046;-85
2022/01/26 05:14:29;;;;;;;52.55;18.33;;;2.80;99.90;;;;;;5032010;28;20470;-85
2022/01/26 05:16:55;;;;;;;42.38;15.48;;;2.80;99.90;;;;;;5031952;28;20143;-86
2022/01/26 05:19:20;;;;;;;42.05;15.98;;;2.80;99.90;;;;;;5014838;28;20127;-84
2022/01/26 05:21:46;;;;;;;48.33;16.25;;;3.10;99.90;;;;;;5032082;28;20033;-84
2022/01/26 05:24:12;;;;;;;47.38;17.10;;;2.80;99.90;;;;;;5015240;28;20053;-85
2022/01/26 05:26:39;;;;;;;56.05;17.17;;;2.90;99.90;;;;;;5031858;28;20545;-86
2022/01/26 05:29:05;;;;;;;46.58;15.80;;;2.80;99.90;;;;;;5032194;28;20413;-85
2022/01/26 05:31:30;;;;;;;51.33;16.77;;;2.80;99.90;;;;;;5031637;28;20033;-85
2022/01/26 05:33:56;;;;;;;49.58;15.93;;;2.80;99.90;;;;;;5031345;28;20045;-86
2022/01/26 05:36:22;;;;;;;56.53;18.05;;;2.80;99.90;;;;;;5031614;28;20037;-86
2022/01/26 05:38:48;;;;;;;45.05;15.25;;;2.80;99.90;;;;;;5031003;28;20051;-85
2022/01/26 05:41:14;;;;;;;43.10;15.77;;;2.80;99.90;;;;;;4998356;28;20049;-85
2022/01/26 05:43:40;;;;;;;47.42;15.65;;;2.80;99.90;;;;;;5031580;28;20089;-85
2022/01/26 05:46:12;;;;;;;40.38;15.32;;;3.30;99.90;;;;;;5014416;28;20042;-86
2022/01/26 05:48:43;;;;;;;46.88;16.77;;;3.00;99.90;;;;;;5031659;28;20048;-86
2022/01/26 05:51:10;;;;;;;47.75;16.40;;;3.30;99.90;;;;;;5032163;28;20367;-86
2022/01/26 05:53:36;;;;;;;47.13;16.73;;;2.80;99.90;;;;;;5031462;28;20091;-86
2022/01/26 05:56:02;;;;;;;49.25;16.98;;;2.70;99.90;;;;;;5031870;28;20072;-85
2022/01/26 05:58:28;;;;;;;44.78;16.05;;;2.80;99.90;;;;;;5031995;28;20080;-81
2022/01/26 06:00:55;;;;;;;47.65;16.10;;;2.80;99.90;;;;;;5013633;28;20363;-85
2022/01/26 06:03:20;;;;;;;51.28;17.05;;;3.60;99.90;;;;;;5014170;28;20045;-86
2022/01/26 06:05:46;;;;;;;54.00;17.65;;;2.80;99.90;;;;;;5031622;28;20049;-85
2022/01/26 06:08:12;;;;;;;42.92;16.00;;;2.70;99.90;;;;;;5031686;28;20041;-84
2022/01/26 06:10:37;;;;;;;46.85;17.33;;;2.70;99.90;;;;;;5010511;28;20061;-81
2022/01/26 06:13:03;;;;;;;39.85;14.10;;;2.80;99.90;;;;;;5011980;28;20406;-85
2022/01/26 06:15:29;;;;;;;41.65;14.35;;;2.80;99.90;;;;;;5011839;28;20076;-85
2022/01/26 06:17:54;;;;;;;48.38;16.42;;;3.10;99.90;;;;;;5011247;28;20576;-84
2022/01/26 06:20:20;;;;;;;51.55;17.40;;;2.70;99.90;;;;;;5011808;28;20069;-83
2022/01/26 06:22:46;;;;;;;49.03;16.13;;;2.70;99.90;;;;;;5011319;28;20372;-83
2022/01/26 06:25:11;;;;;;;53.08;17.60;;;2.70;99.90;;;;;;5010865;28;20050;-84
2022/01/26 06:27:38;;;;;;;49.95;15.60;;;2.70;99.90;;;;;;5011774;28;20041;-85
2022/01/26 06:30:05;;;;;;;51.80;17.58;;;3.30;99.90;;;;;;5011403;28;20073;-86
2022/01/26 06:32:32;;;;;;;39.75;14.52;;;2.60;99.90;;;;;;5011785;28;20112;-86
2022/01/26 06:34:58;;;;;;;38.63;13.65;;;3.10;99.90;;;;;;5011265;28;20119;-86
2022/01/26 06:37:24;;;;;;;41.03;15.02;;;2.60;99.90;;;;;;5011697;28;20084;-86
2022/01/26 06:39:50;;;;;;;45.75;16.60;;;2.70;99.90;;;;;;5011303;28;20046;-82
2022/01/26 06:42:20;;;;;;;50.97;16.63;;;2.60;99.90;;;;;;5011122;28;20434;-85
2022/01/26 06:49:52;;;;;;;44.55;15.07;;;2.70;99.90;;;;;;5015208;28;20054;-80
2022/01/26 06:52:19;;;;;;;49.42;16.95;;;2.70;99.90;;;;;;5014457;28;20574;-83
2022/01/26 06:54:44;;;;;;;50.85;16.02;;;2.70;99.90;;;;;;5015175;28;20045;-83
2022/01/26 06:57:10;;;;;;;46.17;15.45;;;3.10;99.90;;;;;;5015323;28;20042;-80
2022/01/26 06:59:36;;;;;;;45.05;17.00;;;2.60;99.90;;;;;;5014538;28;20091;-86
2022/01/26 07:02:03;;;;;;;47.22;15.15;;;2.60;99.90;;;;;;5014889;28;20513;-83
2022/01/26 07:04:28;;;;;;;42.25;15.32;;;2.60;99.90;;;;;;5015092;28;20065;-82
2022/01/26 07:06:54;;;;;;;45.72;14.02;;;2.60;99.90;;;;;;5014499;28;20049;-85
2022/01/26 07:09:20;;;;;;;47.67;15.55;;;3.30;99.90;;;;;;5016136;28;20045;-85
2022/01/26 07:11:46;;;;;;;46.28;17.88;;;2.60;99.90;;;;;;5034755;28;20033;-85
2022/01/26 07:14:22;;;;;;;52.22;18.25;;;2.60;99.90;;;;;;5034053;28;20042;-84
2022/01/26 07:22:13;;;;;;;50.60;16.23;;;2.60;99.90;;;;;;5033676;28;20092;-87
2022/01/26 07:24:39;;;;;;;54.80;17.88;;;2.60;99.90;;;;;;5034653;28;20044;-86
2022/01/26 07:27:05;;;;;;;46.20;16.20;;;2.60;99.90;;;;;;5034004;28;20037;-89
2022/01/26 07:29:32;;;;;;;50.22;16.52;;;2.60;99.90;;;;;;5034229;28;20042;-86
2022/01/26 07:31:58;;;;;;;53.90;18.98;;;3.40;99.90;;;;;;5033921;28;20045;-89
2022/01/26 07:34:24;;;;;;;55.42;17.35;;;2.80;99.90;;;;;;5034432;28;20041;-86
2022/01/26 07:36:52;;;;;;;45.28;16.92;;;3.30;99.90;;;;;;5016665;28;20040;-81
2022/01/26 07:39:30;;;;;;;52.10;16.95;;;2.50;99.90;;;;;;5034101;28;20148;-81
2022/01/26 07:41:57;;;;;;;57.25;19.80;;;2.70;99.90;;;;;;5033927;28;20049;-81
2022/01/26 07:44:22;;;;;;;63.25;19.38;;;2.70;99.90;;;;;;5016480;28;20390;-87
2022/01/26 07:46:48;;;;;;;51.88;16.80;;;2.80;99.90;;;;;;5033273;28;20037;-82
2022/01/26 07:49:14;;;;;;;46.10;16.73;;;2.70;99.90;;;;;;5033558;28;20050;-84
2022/01/26 07:51:39;;;;;;;53.13;17.42;;;2.70;99.90;;;;;;5034064;28;20037;-81
2022/01/26 07:54:05;;;;;;;48.47;18.23;;;3.00;99.90;;;;;;5033729;28;20045;-81
2022/01/26 07:56:31;;;;;;;45.40;16.05;;;2.70;99.90;;;;;;5015617;28;20049;-83
2022/01/26 07:58:58;;;;;;;49.90;17.00;;;3.70;99.90;;;;;;5034161;28;20095;-82
2022/01/26 08:01:24;;;;;;;42.72;15.80;;;3.10;99.90;;;;;;5015857;28;20054;-86
2022/01/26 08:03:49;;;;;;;48.63;18.02;;;2.70;99.90;;;;;;5033675;28;20045;-88
2022/01/26 08:06:18;;;;;;;45.17;15.10;;;2.70;99.90;;;;;;5033497;28;20045;-87
2022/01/26 08:08:44;;;;;;;59.22;20.17;;;2.70;99.90;;;;;;5033505;28;20448;-87
2022/01/26 08:11:10;;;;;;;52.42;18.05;;;2.80;99.90;;;;;;5033447;28;20053;-85
2022/01/26 08:13:35;;;;;;;54.47;19.60;;;2.80;99.90;;;;;;5014949;28;20461;-90
2022/01/26 08:16:01;;;;;;;51.55;18.27;;;2.80;99.90;;;;;;5046706;28;20041;-90
2022/01/26 08:18:27;;;;;;;54.30;19.38;;;2.90;99.90;;;;;;5033277;28;20045;-88
2022/01/26 08:20:53;;;;;;;59.17;20.08;;;2.80;99.90;;;;;;5033782;28;20111;-87
2022/01/26 08:23:21;;;;;;;56.45;19.58;;;3.00;99.90;;;;;;5032107;28;20103;-86
2022/01/26 08:25:50;;;;;;;58.58;19.95;;;2.80;99.90;;;;;;5030930;28;20041;-86
2022/01/26 08:28:23;;;;;;;48.47;18.92;;;3.20;99.90;;;;;;5033079;28;20045;-87
2022/01/26 08:30:49;;;;;;;56.72;18.15;;;2.90;99.90;;;;;;5026199;28;20053;-87
2022/01/26 08:33:15;;;;;;;54.22;21.08;;;3.30;99.90;;;;;;5033109;28;20094;-88
2022/01/26 08:35:42;;;;;;;54.58;18.80;;;3.10;99.90;;;;;;5032106;28;20046;-86
2022/01/26 08:38:08;;;;;;;51.47;17.77;;;3.30;99.90;;;;;;5032959;28;20053;-86
2022/01/26 08:40:34;;;;;;;51.33;16.52;;;2.90;99.90;;;;;;5015636;28;20119;-86
2022/01/26 08:43:00;;;;;;;47.40;17.02;;;3.20;99.90;;;;;;5032228;28;20088;-88
2022/01/26 08:45:26;;;;;;;52.17;19.60;;;3.00;99.90;;;;;;5031530;28;20090;-87
2022/01/26 08:47:52;;;;;;;53.70;19.45;;;2.90;99.90;;;;;;5031837;28;20046;-87
2022/01/26 08:50:19;;;;;;;49.40;17.08;;;3.40;99.90;;;;;;5015716;28;20466;-84
2022/01/26 08:52:44;;;;;;;54.35;20.13;;;3.00;99.90;;;;;;5032480;28;20060;-88
2022/01/26 08:55:10;;;;;;;53.80;20.50;;;3.00;99.90;;;;;;5015984;28;20405;-88
2022/01/26 08:57:37;;;;;;;51.60;18.23;;;3.00;99.90;;;;;;5016294;28;20504;-85
2022/01/26 09:00:07;;;;;;;49.88;17.67;;;3.40;99.90;;;;;;5032610;28;20045;-85
2022/01/26 09:02:33;;;;;;;49.40;17.77;;;3.00;99.90;;;;;;5023332;28;20048;-85
2022/01/26 09:05:00;;;;;;;55.15;17.90;;;3.00;99.90;;;;;;5033137;28;20047;-85
2022/01/26 09:07:25;;;;;;;48.60;18.17;;;3.00;99.90;;;;;;5032495;28;20044;-84
2022/01/26 09:09:54;;;;;;;52.17;19.52;;;3.00;99.90;;;;;;5010539;28;20057;-84
2022/01/26 09:12:22;;;;;;;58.40;21.08;;;3.10;99.90;;;;;;5013417;28;20049;-84
2022/01/26 09:14:48;;;;;;;50.38;18.52;;;3.10;99.90;;;;;;5012134;28;20042;-84
2022/01/26 09:17:14;;;;;;;57.15;19.25;;;3.10;99.90;;;;;;5012127;28;20539;-84
2022/01/26 09:19:42;;;;;;;44.38;17.35;;;3.10;99.90;;;;;;5013913;28;20057;-85
2022/01/26 09:22:11;;;;;;;46.50;16.48;;;3.10;99.90;;;;;;5013543;28;20054;-85
2022/01/26 09:24:38;;;;;;;50.92;19.45;;;3.10;99.90;;;;;;5013749;28;20461;-84
2022/01/26 09:27:05;;;;;;;46.05;16.83;;;3.60;99.90;;;;;;5013523;28;20045;-84
2022/01/26 09:29:31;;;;;;;44.42;15.52;;;3.20;99.90;;;;;;5013482;28;20161;-85
2022/01/26 09:31:58;;;;;;;46.10;17.27;;;3.20;99.90;;;;;;5013460;28;20050;-83
2022/01/26 09:34:27;;;;;;;51.22;18.33;;;2.80;99.90;;;;;;5013719;28;20049;-84
2022/01/26 09:36:53;;;;;;;45.47;16.77;;;3.20;99.90;;;;;;5013275;28;20573;-84
2022/01/26 09:39:20;;;;;;;44.92;16.73;;;3.80;99.90;;;;;;5013364;28;20129;-83
2022/01/26 09:41:48;;;;;;;47.33;19.00;;;3.30;99.90;;;;;;5013403;28;20109;-85
2022/01/26 09:44:15;;;;;;;49.65;19.08;;;3.80;99.90;;;;;;5012285;28;20053;-84
2022/01/26 09:46:42;;;;;;;55.20;18.48;;;4.10;99.90;;;;;;5013010;28;20057;-84
2022/01/26 09:49:08;;;;;;;53.00;19.02;;;3.40;99.90;;;;;;5013367;28;20042;-84
2022/01/26 09:51:43;;;;;;;47.97;16.80;;;3.40;99.90;;;;;;5013327;28;20042;-84
2022/01/26 09:54:15;;;;;;;45.38;16.30;;;4.10;99.90;;;;;;5013299;28;20045;-84
2022/01/26 09:56:43;;;;;;;40.47;16.35;;;4.30;99.90;;;;;;5013059;28;20438;-83
2022/01/26 09:59:09;;;;;;;40.75;16.95;;;3.50;99.90;;;;;;5013108;28;20129;-84
2022/01/26 10:01:46;;;;;;;60.95;21.50;;;3.50;99.90;;;;;;5012954;28;20045;-84
2022/01/26 10:04:29;;;;;;;49.83;18.27;;;4.00;99.90;;;;;;5012987;28;20050;-83
2022/01/26 10:07:41;;;;;;;51.75;17.63;;;4.30;99.90;;;;;;5011794;28;20112;-84
2022/01/26 10:16:46;;;;;;;53.70;18.80;;;4.40;99.90;;;;;;4952442;29;20051;-85
2022/01/26 10:18:50;;;;;;;46.08;17.63;;;3.80;99.90;;;;;;4952325;29;20058;-84
2022/01/26 10:21:15;;;;;;;48.10;19.52;;;3.80;99.90;;;;;;4955439;29;20090;-85
2022/01/26 10:23:42;;;;;;;44.97;17.27;;;3.80;99.90;;;;;;4956505;29;20454;-83
2022/01/26 10:26:14;;;;;;;56.05;19.52;;;3.90;99.90;;;;;;4940534;29;20055;-83
2022/01/26 10:28:54;;;;;;;52.65;18.33;;;3.90;99.90;;;;;;4956189;29;20126;-83
2022/01/26 10:31:24;;;;;;;45.28;18.08;;;3.90;99.90;;;;;;4956155;29;20074;-84
2022/01/26 10:34:00;;;;;;;45.40;18.10;;;4.30;99.90;;;;;;4956145;29;20055;-84
2022/01/26 10:36:48;;;;;;;46.03;16.48;;;4.00;99.90;;;;;;4940303;29;20054;-83
2022/01/26 10:39:25;;;;;;;47.13;17.83;;;4.00;99.90;;;;;;4956304;29;20112;-84
2022/01/26 10:41:55;;;;;;;44.22;16.60;;;4.00;99.90;;;;;;4956311;29;20057;-84
2022/01/26 10:44:30;;;;;;;42.80;18.02;;;4.00;99.90;;;;;;4956066;29;20121;-86
2022/01/26 10:47:00;;;;;;;46.50;18.00;;;4.30;99.90;;;;;;4955927;29;20054;-85
2022/01/26 10:52:29;;;;;;;45.85;15.05;;;4.10;99.90;;;;;;5006843;28;20046;-82
2022/01/26 10:54:55;;;;;;;34.42;13.43;;;4.50;99.90;;;;;;5016647;28;20046;-81
2022/01/26 10:57:20;;;;;;;42.70;14.75;;;4.10;99.90;;;;;;4998819;28;20521;-81
2022/01/26 10:59:48;;;;;;;38.45;14.13;;;4.10;99.90;;;;;;5016299;28;20038;-82
2022/01/26 11:02:20;;;;;;;39.08;14.65;;;4.10;99.90;;;;;;5016112;28;20107;-81
2022/01/26 11:04:46;;;;;;;37.75;14.02;;;4.10;99.90;;;;;;5016375;28;20042;-81
2022/01/26 11:07:15;;;;;;;37.72;15.32;;;4.10;99.90;;;;;;5016313;28;20368;-81
2022/01/26 11:09:44;;;;;;;41.90;16.55;;;4.10;99.90;;;;;;5018131;28;20307;-81
2022/01/26 11:12:12;;;;;;;38.17;14.32;;;4.50;99.90;;;;;;5035785;28;20509;-82
2022/01/26 11:14:56;;;;;;;32.10;12.43;;;4.10;99.90;;;;;;5035742;28;20052;-81
2022/01/26 11:17:31;;;;;;;40.95;13.57;;;4.10;99.90;;;;;;5035347;28;20500;-82
2022/01/26 11:19:58;;;;;;;;;;;4.00;99.90;;;;;;5036086;28;20052;-81
2022/01/26 11:22:29;;;;;;;;;;;4.00;99.90;;;;;;5036121;28;19925;-81
2022/01/26 11:25:06;;;;;;;40.85;15.75;;;4.70;99.90;;;;;;5035805;28;20400;-81
2022/01/26 11:27:37;;;;;;;42.40;15.80;;;4.10;99.90;;;;;;5035372;28;20050;-81
2022/01/26 11:30:30;;;;;;;41.78;13.85;;;4.10;99.90;;;;;;5017905;28;20050;-81
2022/01/26 11:33:02;;;;;;;33.25;13.15;;;4.10;99.90;;;;;;5035587;28;20045;-80
2022/01/26 11:35:31;;;;;;;29.00;11.00;;;4.10;99.90;;;;;;5035509;28;20087;-81
2022/01/26 11:38:09;;;;;;;36.53;14.35;;;5.00;99.90;;;;;;5035299;28;20453;-80
2022/01/26 11:46:30;;;;;;;33.63;13.27;;;5.10;99.90;;;;;;5035071;28;20053;-81
2022/01/26 11:49:01;;;;;;;41.75;13.93;;;4.30;99.90;;;;;;5035130;28;20107;-81
2022/01/26 11:51:45;;;;;;;39.13;15.32;;;4.80;99.90;;;;;;5035242;28;20669;-80
2022/01/26 11:54:17;;;;;;;49.17;17.05;;;4.10;99.90;;;;;;5035055;28;20137;-80
2022/01/26 11:57:02;;;;;;;38.28;14.95;;;4.20;99.90;;;;;;5034138;28;20056;-80
2022/01/26 11:59:31;;;;;;;40.53;14.48;;;4.20;99.90;;;;;;5015127;28;20100;-79
2022/01/26 12:02:10;;;;;;;39.70;14.77;;;4.30;99.90;;;;;;5015079;28;20038;-85
2022/01/26 12:04:37;;;;;;;39.47;15.05;;;4.80;99.90;;;;;;5022889;28;20033;-84
2022/01/26 12:07:10;;;;;;;46.72;15.45;;;4.20;99.90;;;;;;5016969;28;20378;-83
2022/01/26 12:09:39;;;;;;;39.95;14.10;;;4.30;99.90;;;;;;5034254;28;20081;-84
2022/01/26 12:12:06;;;;;;;41.40;15.65;;;4.60;99.90;;;;;;5012145;28;20099;-81
2022/01/26 12:14:33;;;;;;;48.00;17.83;;;4.30;99.90;;;;;;5007663;28;20042;-83
2022/01/26 12:17:03;;;;;;;44.85;16.38;;;5.10;99.90;;;;;;5014509;28;20033;-84
2022/01/26 12:33:36;;;;;;;37.92;15.00;;;4.40;99.90;;;;;;5013542;28;20049;-81
2022/01/26 12:36:01;;;;;;;38.95;14.73;;;4.30;99.90;;;;;;5012962;28;20057;-81
2022/01/26 12:38:48;;;;;;;46.08;16.75;;;4.90;99.90;;;;;;5013637;28;20096;-81
2022/01/26 12:43:43;;;;;;;47.13;16.02;;;4.40;99.90;;;;;;5013368;28;20042;-82
2022/01/26 12:46:14;;;;;;;40.88;15.40;;;5.10;99.90;;;;;;5012386;28;20532;-83
2022/01/26 12:48:46;;;;;;;33.95;14.35;;;4.40;99.90;;;;;;5012486;28;20403;-81
2022/01/26 12:51:12;;;;;;;41.90;15.52;;;4.40;99.90;;;;;;5013073;28;20078;-83
2022/01/26 12:53:40;;;;;;;40.83;16.90;;;4.40;99.90;;;;;;5013153;28;20482;-82
2022/01/26 12:56:08;;;;;;;40.78;15.40;;;4.70;99.90;;;;;;5013372;28;20074;-82
2022/01/26 12:58:36;;;;;;;35.65;15.07;;;5.00;99.90;;;;;;5012918;28;20046;-81
2022/01/26 13:01:06;;;;;;;45.80;16.13;;;4.40;99.90;;;;;;4995300;28;20100;-85
2022/01/26 13:03:34;;;;;;;46.85;17.10;;;4.40;99.90;;;;;;5012839;28;20470;-81
2022/01/26 13:06:23;;;;;;;43.13;16.77;;;4.50;99.90;;;;;;5012588;28;20034;-80
2022/01/26 13:08:51;;;;;;;40.90;15.52;;;4.50;99.90;;;;;;5007119;28;20048;-83
2022/01/26 13:11:24;;;;;;;40.15;15.23;;;4.50;99.90;;;;;;5025669;28;20060;-81
2022/01/26 13:14:25;;;;;;;41.47;16.02;;;4.60;99.90;;;;;;5032425;28;20061;-86
2022/01/26 13:45:42;;;;;;;34.55;13.88;;;5.70;99.90;;;;;;5032049;28;20409;-85
2022/01/26 13:50:33;;;;;;;31.45;12.82;;;4.90;99.90;;;;;;5014491;28;20060;-86
2022/01/26 13:53:16;;;;;;;44.58;15.20;;;5.10;99.90;;;;;;5031937;28;20128;-86
2022/01/26 14:01:04;;;;;;;35.55;14.25;;;5.00;99.90;;;;;;5032566;28;20041;-86
2022/01/26 14:03:33;;;;;;;39.30;15.43;;;5.50;99.90;;;;;;5032768;28;20046;-84
2022/01/26 14:05:59;;;;;;;37.20;14.15;;;5.00;99.90;;;;;;5032830;28;20045;-83
2022/01/26 14:08:24;;;;;;;31.45;11.65;;;5.10;99.90;;;;;;5032429;28;20402;-83
2022/01/26 14:10:50;;;;;;;30.98;12.23;;;5.40;99.90;;;;;;5032479;28;20058;-85
2022/01/26 14:13:21;;;;;;;34.15;12.63;;;5.10;99.90;;;;;;5008978;28;20113;-83
2022/01/26 14:15:50;;;;;;;31.00;12.90;;;5.80;99.90;;;;;;5032565;28;20409;-84
2022/01/26 14:25:47;;;;;;;35.20;13.05;;;5.40;99.90;;;;;;5032515;28;20049;-83
2022/01/26 14:28:15;;;;;;;33.10;13.48;;;5.20;99.90;;;;;;5031983;28;20390;-85
2022/01/26 15:50:51;;;;;;;22.98;9.25;;;5.80;99.90;;;;;;4954945;29;20213;-84
2022/01/26 15:57:21;;;;;;;35.40;12.93;;;5.60;99.90;;;;;;4938863;29;20134;-85
2022/01/26 16:04:58;;;;;;;31.73;11.32;;;5.20;99.90;;;;;;4900261;29;20044;-81
2022/01/26 16:07:26;;;;;;;28.10;11.07;;;5.20;99.90;;;;;;4920107;29;20432;-81
2022/01/26 16:12:55;;;;;;;31.83;12.23;;;5.70;99.90;;;;;;4890809;29;20052;-86
2022/01/26 18:49:25;;;;;;;25.15;10.68;;;5.60;99.90;;;;;;5034474;28;20512;-85
2022/01/26 18:51:53;;;;;;;28.00;11.32;;;6.20;99.90;;;;;;5034146;28;20351;-85
2022/01/26 18:54:23;;;;;;;24.15;10.00;;;6.30;99.90;;;;;;5035308;28;20107;-83
2022/01/26 18:56:49;;;;;;;23.33;8.88;;;6.10;99.90;;;;;;5032340;28;20038;-85
2022/01/26 18:59:17;;;;;;;24.92;11.13;;;5.60;99.90;;;;;;5017694;28;20077;-86
2022/01/26 19:01:44;;;;;;;26.15;10.70;;;5.60;99.90;;;;;;5034508;28;20474;-84
2022/01/26 19:04:10;;;;;;;27.52;11.75;;;6.50;99.90;;;;;;5017512;28;20046;-82
2022/01/26 19:06:39;;;;;;;25.98;10.60;;;5.70;99.90;;;;;;5016768;28;20072;-81
2022/01/26 19:09:05;;;;;;;24.67;10.50;;;5.80;99.90;;;;;;5034917;28;20050;-81
2022/01/26 19:11:31;;;;;;;30.50;12.95;;;5.60;99.90;;;;;;5014338;28;20096;-81
2022/01/26 19:13:59;;;;;;;30.42;10.93;;;5.70;99.90;;;;;;5013414;28;20085;-81
2022/01/26 19:19:07;;;;;;;29.80;11.65;;;6.10;99.90;;;;;;5013683;28;20414;-83
2022/01/26 19:26:52;;;;;;;23.95;10.07;;;5.70;99.90;;;;;;5014645;28;20048;-82
2022/01/26 19:45:45;;;;;;;24.52;10.45;;;5.80;99.90;;;;;;5013953;28;20104;-82
2022/01/26 19:50:50;;;;;;;25.52;10.65;;;6.40;99.90;;;;;;5007845;28;20141;-86
2022/01/26 19:53:16;;;;;;;23.75;9.80;;;6.00;99.90;;;;;;5009601;28;20038;-85
2022/01/26 19:55:42;;;;;;;27.27;10.10;;;5.90;99.90;;;;;;5017007;28;20054;-86
2022/01/26 19:58:08;;;;;;;25.70;9.38;;;6.00;99.90;;;;;;5013782;28;20064;-86
2022/01/26 20:00:38;;;;;;;22.95;9.70;;;6.20;99.90;;;;;;5012952;28;20034;-82
2022/01/26 20:03:04;;;;;;;25.25;10.00;;;5.90;99.90;;;;;;5009376;28;20046;-84
2022/01/26 20:05:34;;;;;;;22.23;10.10;;;6.60;99.90;;;;;;5013562;28;20046;-81
2022/01/26 20:08:07;;;;;;;25.55;9.63;;;6.00;99.90;;;;;;5007463;28;20061;-83
2022/01/26 20:10:35;;;;;;;26.42;10.73;;;6.50;99.90;;;;;;5014344;28;20062;-83
2022/01/26 20:13:07;;;;;;;22.83;10.20;;;6.20;99.90;;;;;;5034002;28;20064;-82
2022/01/26 20:15:33;;;;;;;26.42;9.65;;;6.00;99.90;;;;;;5032854;28;20393;-83
2022/01/26 20:17:59;;;;;;;22.98;10.18;;;6.20;99.90;;;;;;5016446;28;20069;-83
2022/01/26 20:20:25;;;;;;;17.92;8.98;;;6.70;99.90;;;;;;5032496;28;20041;-85